Time;durP1;ratioP1;P1;durP2;ratioP2;P2;SDS_P1;SDS_P2;PMS_P1;PMS_P2;Temp;Humidity;BMP_temperature;BMP_pressure;BME280_temperature;BME280_humidity;BME280_pressure;Samples;Min_cycle;Max_cycle;Signal;HPM_P1;HPM_P2
2022/08/25 00:00:12;;;;;;;7.13;6.63;;;;;;;19.33;100.00;102150.22;5033147;28;20471;-52
2022/08/25 00:02:40;;;;;;;7.50;7.00;;;;;;;19.31;100.00;102145.03;5033050;28;20463;-49
2022/08/25 00:05:25;;;;;;;7.57;6.87;;;;;;;19.29;100.00;102144.41;5033354;28;20504;-52
2022/08/25 00:07:55;;;;;;;7.63;6.90;;;;;;;19.27;100.00;102140.28;5033614;28;20438;-49
2022/08/25 00:10:24;;;;;;;7.50;6.70;;;;;;;19.26;100.00;102144.03;5033101;28;20479;-52
2022/08/25 00:12:52;;;;;;;8.37;7.57;;;;;;;19.25;100.00;102140.50;5032884;28;20458;-54
2022/08/25 00:15:22;;;;;;;8.30;7.33;;;;;;;19.25;100.00;102140.50;5033121;28;21000;-54
2022/08/25 00:17:50;;;;;;;8.63;6.53;;;;;;;19.24;100.00;102135.31;5033118;28;20432;-53
2022/08/25 00:20:18;;;;;;;6.43;6.03;;;;;;;19.24;100.00;102127.19;5032608;28;20467;-54
2022/08/25 00:22:46;;;;;;;6.87;6.27;;;;;;;19.24;100.00;102140.72;5032481;28;20949;-47
2022/08/25 00:25:13;;;;;;;6.87;6.20;;;;;;;19.23;100.00;102139.06;5032697;28;20438;-51
2022/08/25 00:27:43;;;;;;;8.10;6.83;;;;;;;19.22;100.00;102146.34;5032542;28;20440;-49
2022/08/25 00:30:13;;;;;;;6.50;6.10;;;;;;;19.21;100.00;102139.28;5031951;28;20470;-48
2022/08/25 00:32:42;;;;;;;7.67;7.03;;;;;;;19.19;100.00;102149.50;5032915;28;20526;-47
2022/08/25 00:35:18;;;;;;;6.77;6.10;;;;;;;19.18;100.00;102147.84;5032870;28;20475;-52
2022/08/25 00:37:45;;;;;;;7.47;6.73;;;;;;;19.17;100.00;102142.66;5032852;28;20432;-52
2022/08/25 00:40:13;;;;;;;7.07;6.40;;;;;;;19.16;100.00;102149.94;5032485;28;20474;-51
2022/08/25 00:42:42;;;;;;;7.10;6.50;;;;;;;19.16;100.00;102152.63;5032424;28;20481;-53
2022/08/25 00:45:10;;;;;;;7.47;6.83;;;;;;;19.15;100.00;102150.97;5032545;28;20937;-53
2022/08/25 00:47:39;;;;;;;7.97;6.40;;;;;;;19.13;100.00;102158.50;5032792;28;20794;-52
2022/08/25 00:50:09;;;;;;;7.70;7.00;;;;;;;19.12;100.00;102156.81;5032174;28;20829;-53
2022/08/25 00:52:41;;;;;;;10.07;6.50;;;;;;;19.12;100.00;102146.00;5032155;28;20458;-51
2022/08/25 00:55:14;;;;;;;7.77;7.00;;;;;;;19.09;100.00;102146.44;5032405;28;20475;-52
2022/08/25 00:57:47;;;;;;;18.07;6.57;;;;;;;19.10;100.00;102155.38;5032867;28;20432;-50
2022/08/25 01:00:19;;;;;;;7.40;6.73;;;;;;;19.08;100.00;102142.09;5032057;28;20518;-53
2022/08/25 01:02:47;;;;;;;7.23;6.73;;;;;;;19.06;100.00;102146.03;5032076;28;21011;-51
2022/08/25 01:05:16;;;;;;;8.50;7.27;;;;;;;19.04;100.00;102146.28;5032226;28;20991;-49
2022/08/25 01:07:44;;;;;;;7.67;7.17;;;;;;;19.02;100.00;102159.19;5032062;28;20432;-50
2022/08/25 01:10:13;;;;;;;8.57;7.70;;;;;;;19.00;100.00;102153.16;5031838;28;20459;-52
2022/08/25 01:12:41;;;;;;;7.67;6.97;;;;;;;19.00;100.00;102155.84;5031793;28;20455;-51
2022/08/25 01:15:12;;;;;;;7.67;7.03;;;;;;;18.98;100.00;102155.25;5032020;28;20478;-49
2022/08/25 01:17:47;;;;;;;7.47;6.77;;;;;;;18.98;100.00;102157.13;5032205;28;20426;-50
2022/08/25 01:20:17;;;;;;;7.63;6.67;;;;;;;18.96;100.00;102160.06;5031623;28;20463;-50
2022/08/25 01:22:46;;;;;;;7.40;6.77;;;;;;;18.93;100.00;102155.09;5031969;28;20448;-48
2022/08/25 01:25:31;;;;;;;7.37;6.87;;;;;;;18.91;100.00;102154.47;5032164;28;20497;-49
2022/08/25 01:27:58;;;;;;;6.47;6.00;;;;;;;18.88;100.00;102156.75;5032120;28;20786;-50
2022/08/25 01:30:27;;;;;;;7.77;7.17;;;;;;;18.87;100.00;102155.13;5031682;28;20463;-50
2022/08/25 01:32:54;;;;;;;8.67;8.00;;;;;;;18.84;100.00;102158.25;5030900;28;20811;-49
2022/08/25 01:35:22;;;;;;;8.93;8.30;;;;;;;18.81;100.00;102153.28;5032161;28;20475;-49
2022/08/25 01:37:51;;;;;;;7.80;7.27;;;;;;;18.75;100.00;102155.81;5031923;28;20431;-51
2022/08/25 01:40:19;;;;;;;7.70;6.80;;;;;;;18.72;100.00;102152.72;5031380;28;21190;-49
2022/08/25 01:42:57;;;;;;;7.77;7.27;;;;;;;18.69;100.00;102155.84;5031553;28;20451;-51
2022/08/25 01:45:25;;;;;;;8.10;7.50;;;;;;;18.68;100.00;102160.41;5031559;28;20446;-51
2022/08/25 01:47:55;;;;;;;8.20;7.50;;;;;;;18.64;100.00;102161.88;5031950;28;20440;-49
2022/08/25 01:50:23;;;;;;;8.07;7.43;;;;;;;18.62;100.00;102160.44;5031263;28;20547;-53
2022/08/25 01:52:58;;;;;;;9.67;8.60;;;;;;;18.61;100.00;102166.88;5031292;28;20462;-53
2022/08/25 01:55:26;;;;;;;8.53;7.93;;;;;;;18.57;100.00;102160.28;5031503;28;20490;-54
2022/08/25 01:57:54;;;;;;;7.37;6.83;;;;;;;18.54;100.00;102161.53;5031398;28;20469;-50
2022/08/25 02:00:22;;;;;;;13.40;8.13;;;;;;;18.51;100.00;102169.22;5031622;28;20838;-51
2022/08/25 02:02:51;;;;;;;8.73;7.80;;;;;;;18.48;100.00;102164.22;5031262;28;20455;-50
2022/08/25 02:05:22;;;;;;;10.77;8.03;;;;;;;18.45;100.00;102164.66;5031554;28;20431;-54
2022/08/25 02:07:52;;;;;;;7.90;7.33;;;;;;;18.38;100.00;102159.28;5031700;28;20882;-53
2022/08/25 02:10:21;;;;;;;8.27;7.67;;;;;;;18.34;100.00;102168.84;5031151;28;21030;-55
2022/08/25 02:12:49;;;;;;;8.17;7.47;;;;;;;18.30;100.00;102166.78;5031166;28;20455;-53
2022/08/25 02:15:21;;;;;;;7.67;7.07;;;;;;;18.30;100.00;102169.50;5031601;28;20518;-53
2022/08/25 02:17:48;;;;;;;8.80;7.90;;;;;;;18.28;100.00;102169.69;5031530;28;20810;-53
2022/08/25 02:20:16;;;;;;;9.43;8.50;;;;;;;18.25;100.00;102170.94;5031103;28;20456;-54
2022/08/25 02:22:44;;;;;;;9.67;8.67;;;;;;;18.24;100.00;102172.00;5030976;28;20466;-52
2022/08/25 02:25:24;;;;;;;9.53;8.67;;;;;;;18.24;100.00;102171.16;5031517;28;20547;-52
2022/08/25 02:27:52;;;;;;;10.30;8.50;;;;;;;18.22;100.00;102170.53;5031407;28;20797;-54
2022/08/25 02:30:20;;;;;;;8.10;7.40;;;;;;;18.19;100.00;102166.38;5031081;28;20821;-50
2022/08/25 02:32:48;;;;;;;10.00;8.20;;;;;;;18.17;100.00;102168.47;5031057;28;20825;-53
2022/08/25 02:35:16;;;;;;;8.67;7.90;;;;;;;18.15;100.00;102167.88;5031005;28;20476;-53
2022/08/25 02:37:44;;;;;;;9.23;8.33;;;;;;;18.14;100.00;102166.22;5031424;28;20443;-53
2022/08/25 02:40:12;;;;;;;9.53;8.73;;;;;;;18.14;100.00;102168.91;5030841;28;20464;-53
2022/08/25 02:42:42;;;;;;;12.30;8.50;;;;;;;18.13;100.00;102164.53;5031709;28;20460;-54
2022/08/25 02:45:10;;;;;;;10.20;9.40;;;;;;;18.13;100.00;102161.84;5034978;28;20454;-54
2022/08/25 02:47:37;;;;;;;9.27;8.50;;;;;;;18.12;100.00;102168.31;5034822;28;20439;-54
2022/08/25 02:50:06;;;;;;;10.23;9.17;;;;;;;18.09;100.00;102160.63;5034404;28;21039;-52
2022/08/25 02:52:34;;;;;;;9.53;8.70;;;;;;;18.10;100.00;102164.97;5034601;28;20458;-54
2022/08/25 02:55:03;;;;;;;10.30;8.80;;;;;;;18.09;100.00;102160.63;5034738;28;20457;-52
2022/08/25 02:57:31;;;;;;;9.10;8.40;;;;;;;18.09;100.00;102159.78;5034834;28;20446;-53
2022/08/25 03:00:00;;;;;;;9.07;8.27;;;;;;;18.07;100.00;102159.97;5034166;28;20463;-51
2022/08/25 03:02:28;;;;;;;8.40;7.60;;;;;;;18.06;100.00;102154.81;5034164;28;20481;-51
2022/08/25 03:04:55;;;;;;;9.57;8.40;;;;;;;18.03;100.00;102157.94;5034713;28;20464;-50
2022/08/25 03:07:23;;;;;;;8.63;8.03;;;;;;;18.01;100.00;102152.72;5034581;28;20427;-53
2022/08/25 03:09:51;;;;;;;9.40;8.50;;;;;;;17.99;100.00;102149.44;5034274;28;20516;-54
2022/08/25 03:12:19;;;;;;;10.07;9.17;;;;;;;18.00;100.00;102150.25;5034192;28;20448;-53
2022/08/25 03:14:46;;;;;;;11.43;8.93;;;;;;;18.00;100.00;102158.34;5034291;28;20805;-52
2022/08/25 03:17:15;;;;;;;12.13;9.13;;;;;;;17.98;100.00;102150.44;5034164;28;20467;-53
2022/08/25 03:19:43;;;;;;;10.13;9.37;;;;;;;17.99;100.00;102143.19;5033996;28;20464;-53
2022/08/25 03:22:10;;;;;;;10.27;9.40;;;;;;;17.96;100.00;102139.06;5034105;28;20466;-55
2022/08/25 03:24:38;;;;;;;13.53;9.40;;;;;;;17.96;100.00;102132.81;5034726;28;20436;-52
2022/08/25 03:27:05;;;;;;;10.57;9.63;;;;;;;17.97;100.00;102143.41;5034240;28;20432;-54
2022/08/25 03:29:34;;;;;;;11.17;10.17;;;;;;;17.96;100.00;102133.66;5033531;28;21008;-55
2022/08/25 03:32:02;;;;;;;11.20;10.23;;;;;;;17.95;100.00;102133.88;5033950;28;21008;-54
2022/08/25 03:34:31;;;;;;;10.33;9.53;;;;;;;17.93;100.00;102128.69;5033907;28;20630;-51
2022/08/25 03:37:00;;;;;;;11.37;10.27;;;;;;;17.93;100.00;102136.78;5033846;28;21019;-52
2022/08/25 03:39:27;;;;;;;10.23;9.23;;;;;;;17.90;100.00;102128.25;5033435;28;20838;-52
2022/08/25 03:41:55;;;;;;;9.93;9.13;;;;;;;17.90;100.00;102129.09;5033662;28;20452;-54
2022/08/25 03:44:23;;;;;;;12.23;11.17;;;;;;;17.89;100.00;102132.81;5033781;28;20436;-51
2022/08/25 03:46:51;;;;;;;12.07;10.87;;;;;;;17.89;100.00;102124.72;5034060;28;20428;-54
2022/08/25 03:49:22;;;;;;;11.23;10.23;;;;;;;17.89;100.00;102121.22;5033477;28;20460;-51
2022/08/25 03:51:53;;;;;;;11.23;10.30;;;;;;;17.88;100.00;102124.97;5033615;28;20448;-54
2022/08/25 03:54:23;;;;;;;12.27;11.10;;;;;;;17.89;100.00;102123.94;5032616;28;21072;-51
2022/08/25 03:56:51;;;;;;;12.20;11.10;;;;;;;17.90;100.00;102125.56;5033700;28;20476;-49
2022/08/25 03:59:19;;;;;;;12.13;10.80;;;;;;;17.89;100.00;102124.72;5033204;28;20476;-53
2022/08/25 04:01:47;;;;;;;11.00;10.00;;;;;;;17.89;100.00;102124.72;5033462;28;20479;-53
2022/08/25 04:04:21;;;;;;;14.23;12.97;;;;;;;17.89;100.00;102124.72;5033336;28;20539;-54
2022/08/25 04:06:49;;;;;;;13.30;12.10;;;;;;;17.89;100.00;102118.53;5033375;28;20427;-54
2022/08/25 04:09:18;;;;;;;15.07;12.40;;;;;;;17.89;100.00;102122.03;5033116;28;20472;-50
2022/08/25 04:11:46;;;;;;;13.90;12.80;;;;;;;17.90;100.00;102126.41;5033440;28;20455;-52
2022/08/25 04:14:18;;;;;;;12.27;11.07;;;;;;;17.91;100.00;102125.38;5033172;28;20446;-51
2022/08/25 04:16:46;;;;;;;14.33;12.83;;;;;;;17.91;100.00;102122.66;5033397;28;20476;-54
2022/08/25 04:19:14;;;;;;;15.87;12.63;;;;;;;17.92;100.00;102124.31;5032777;28;20826;-53
2022/08/25 04:21:42;;;;;;;18.77;13.77;;;;;;;17.92;100.00;102124.31;5033090;28;20460;-50
2022/08/25 04:24:12;;;;;;;16.33;12.90;;;;;;;17.93;100.00;102120.56;5032879;28;20440;-54
2022/08/25 04:26:43;;;;;;;13.83;12.53;;;;;;;17.97;100.00;102118.28;5033465;28;20432;-52
2022/08/25 04:29:13;;;;;;;15.23;13.70;;;;;;;17.98;100.00;102120.75;5032590;28;20474;-52
2022/08/25 04:31:45;;;;;;;14.17;12.50;;;;;;;17.98;100.00;102120.75;5032777;28;20918;-49
2022/08/25 04:34:15;;;;;;;14.60;13.40;;;;;;;18.00;100.00;102115.16;5032649;28;20510;-53
2022/08/25 04:36:57;;;;;;;15.57;13.50;;;;;;;18.04;100.00;102132.59;5032821;28;20472;-53
2022/08/25 04:39:25;;;;;;;14.73;13.33;;;;;;;18.07;100.00;102134.88;5032497;28;21015;-51
2022/08/25 04:41:54;;;;;;;14.93;13.53;;;;;;;18.10;100.00;102137.97;5032740;28;20458;-53
2022/08/25 04:44:21;;;;;;;18.40;13.90;;;;;;;18.17;100.00;102129.84;5032453;28;20440;-51
2022/08/25 04:46:49;;;;;;;14.43;13.03;;;;;;;18.20;100.00;102130.25;5032793;28;20920;-54
2022/08/25 04:49:17;;;;;;;12.73;11.50;;;;;;;18.22;100.00;102133.56;5032402;28;20460;-53
2022/08/25 04:51:45;;;;;;;13.60;12.40;;;;;;;18.30;100.00;102135.22;5032600;28;20455;-54
2022/08/25 04:54:15;;;;;;;14.33;13.07;;;;;;;18.35;100.00;102140.78;5032393;28;20443;-49
2022/08/25 04:56:44;;;;;;;14.17;12.80;;;;;;;18.51;100.00;102145.75;5032505;28;20841;-54
2022/08/25 04:59:14;;;;;;;13.20;12.10;;;;;;;18.81;100.00;102142.47;5031803;28;20456;-50
2022/08/25 05:01:45;;;;;;;13.30;11.80;;;;;;;19.10;100.00;102136.47;5032327;28;20505;-49
2022/08/25 05:04:16;;;;;;;12.63;11.60;;;;;;;19.27;100.00;102149.22;5032295;28;20498;-49
2022/08/25 05:06:55;;;;;;;11.00;9.97;;;;;;;19.74;100.00;102141.56;5031472;28;20962;-53
2022/08/25 05:09:25;;;;;;;11.47;10.57;;;;;;;20.10;100.00;102136.16;5031630;28;20550;-50
2022/08/25 05:11:53;;;;;;;14.63;9.83;;;;;;;20.74;100.00;102129.34;5032543;28;20459;-53
2022/08/25 05:14:23;;;;;;;10.97;10.07;;;;;;;21.42;100.00;102129.75;5031930;28;20938;-54
2022/08/25 05:16:53;;;;;;;10.67;9.73;;;;;;;22.00;100.00;102127.06;5032220;28;20551;-54
2022/08/25 05:19:22;;;;;;;10.30;9.50;;;;;;;22.42;100.00;102139.38;5031784;28;20466;-51
2022/08/25 05:21:50;;;;;;;10.27;9.27;;;;;;;22.83;100.00;102130.13;5031932;28;20456;-54
2022/08/25 05:24:18;;;;;;;14.40;9.60;;;;;;;22.77;91.66;102133.00;5032017;28;20442;-52
2022/08/25 05:26:46;;;;;;;11.23;10.10;;;;;;;22.32;92.11;102131.00;5031935;28;20432;-50
2022/08/25 05:29:14;;;;;;;10.97;10.17;;;;;;;22.00;95.17;102129.78;5031637;28;20466;-52
2022/08/25 05:31:44;;;;;;;10.93;10.03;;;;;;;21.50;97.66;102122.09;5031923;28;20558;-53
2022/08/25 05:34:18;;;;;;;12.37;11.07;;;;;;;21.24;100.00;102127.97;5031844;28;20431;-49
2022/08/25 05:36:46;;;;;;;13.70;10.87;;;;;;;20.99;100.00;102121.91;5031913;28;20961;-53
2022/08/25 05:39:13;;;;;;;11.20;10.20;;;;;;;20.78;100.00;102128.66;5031269;28;20460;-49
2022/08/25 05:41:41;;;;;;;14.77;13.37;;;;;;;20.54;100.00;102135.06;5031792;28;20478;-55
2022/08/25 05:44:09;;;;;;;12.73;11.70;;;;;;;20.38;100.00;102132.97;5031698;28;20431;-52
2022/08/25 05:46:36;;;;;;;13.30;12.20;;;;;;;20.21;100.00;102130.00;5031801;28;20432;-52
2022/08/25 05:49:05;;;;;;;12.20;11.20;;;;;;;20.08;100.00;102127.44;5031115;28;21011;-53
2022/08/25 05:51:33;;;;;;;14.20;12.80;;;;;;;20.07;100.00;102127.69;5031691;28;20455;-52
2022/08/25 05:54:02;;;;;;;14.37;12.90;;;;;;;19.98;100.00;102139.88;5031580;28;20817;-53
2022/08/25 05:56:30;;;;;;;13.53;12.43;;;;;;;19.93;100.00;102135.13;5031882;28;20435;-53
2022/08/25 05:58:57;;;;;;;15.60;13.70;;;;;;;19.78;100.00;102130.06;5031058;28;21200;-47
2022/08/25 06:04:16;;;;;;;14.60;13.07;;;;;;;19.74;100.00;102128.84;5031427;28;20435;-52
2022/08/25 06:06:44;;;;;;;13.13;12.00;;;;;;;19.81;100.00;102132.31;5031863;28;20428;-54
2022/08/25 06:09:11;;;;;;;14.57;13.13;;;;;;;19.83;100.00;102140.25;5031162;28;20460;-49
2022/08/25 06:11:40;;;;;;;13.73;12.43;;;;;;;19.84;100.00;102140.00;5031357;28;20452;-51
2022/08/25 06:14:08;;;;;;;18.00;14.07;;;;;;;19.78;100.00;102140.06;5031151;28;20439;-53
2022/08/25 06:16:37;;;;;;;14.30;12.90;;;;;;;19.80;100.00;102140.69;5031793;28;20809;-51
2022/08/25 06:19:06;;;;;;;15.93;14.10;;;;;;;19.80;100.00;102136.06;5034006;28;20463;-49
2022/08/25 06:21:37;;;;;;;15.00;13.70;;;;;;;19.93;100.00;102137.81;5035321;28;20462;-52
2022/08/25 06:24:06;;;;;;;14.60;13.20;;;;;;;20.13;100.00;102129.50;5035136;28;20441;-55
2022/08/25 06:26:34;;;;;;;15.30;12.60;;;;;;;20.32;100.00;102129.28;5035156;28;20438;-54
2022/08/25 06:29:01;;;;;;;14.33;12.30;;;;;;;21.12;100.00;102131.72;5034964;28;20451;-55
2022/08/25 06:31:29;;;;;;;13.47;12.23;;;;;;;21.82;100.00;102127.19;5034958;28;20452;-52
2022/08/25 06:33:57;;;;;;;10.60;9.60;;;;;;;22.17;100.00;102125.25;5034897;28;20438;-54
2022/08/25 06:36:25;;;;;;;12.50;11.43;;;;;;;22.19;97.13;102125.84;5035360;28;20523;-51
2022/08/25 06:38:54;;;;;;;11.23;10.23;;;;;;;22.13;95.68;102124.09;5034469;28;20487;-54
2022/08/25 06:41:21;;;;;;;12.07;10.97;;;;;;;22.12;95.64;102127.06;5035001;28;20457;-52
2022/08/25 06:43:49;;;;;;;11.00;10.10;;;;;;;22.38;96.40;102121.06;5034963;28;20428;-53
2022/08/25 06:46:26;;;;;;;10.00;9.17;;;;;;;22.22;94.38;102128.06;5035195;28;20457;-54
2022/08/25 06:49:04;;;;;;;11.23;9.43;;;;;;;22.23;94.05;102127.03;5034408;28;20448;-54
2022/08/25 06:51:34;;;;;;;11.40;10.33;;;;;;;22.21;94.27;102123.72;5034618;28;20444;-55
2022/08/25 06:54:05;;;;;;;9.93;9.00;;;;;;;22.33;94.29;102127.25;5034758;28;20514;-52
2022/08/25 06:56:33;;;;;;;10.60;9.70;;;;;;;22.42;90.37;102114.09;5034916;28;20435;-55
2022/08/25 06:59:02;;;;;;;8.93;8.13;;;;;;;23.43;90.69;102122.22;5034397;28;20986;-49
2022/08/25 07:01:30;;;;;;;9.83;8.60;;;;;;;24.06;83.05;102110.88;5034501;28;20459;-53
2022/08/25 07:04:01;;;;;;;8.10;7.50;;;;;;;24.61;79.99;102110.69;5034039;28;20782;-49
2022/08/25 07:06:31;;;;;;;9.27;8.10;;;;;;;25.15;76.95;102105.22;5034631;28;20431;-52
2022/08/25 07:08:59;;;;;;;10.37;8.13;;;;;;;25.51;72.44;102109.09;5034279;28;20455;-53
2022/08/25 07:11:32;;;;;;;10.07;7.40;;;;;;;26.21;75.71;102111.41;5034473;28;20451;-53
2022/08/25 07:14:01;;;;;;;8.00;7.50;;;;;;;26.47;68.64;102104.94;5034234;28;20432;-53
2022/08/25 07:16:30;;;;;;;8.10;7.50;;;;;;;26.70;66.57;102109.09;5034476;28;20922;-55
2022/08/25 07:18:58;;;;;;;8.13;7.40;;;;;;;27.02;66.84;102104.22;5033313;28;20471;-55
2022/08/25 07:21:28;;;;;;;7.80;7.10;;;;;;;26.95;64.32;102109.16;5034619;28;20559;-53
2022/08/25 07:24:00;;;;;;;8.03;7.33;;;;;;;27.03;63.12;102116.00;5034292;28;20443;-55
2022/08/25 07:26:33;;;;;;;9.00;7.63;;;;;;;27.10;64.00;102116.53;5034414;28;20201;-53
2022/08/25 07:29:08;;;;;;;8.00;7.30;;;;;;;26.98;61.71;102113.25;5033075;28;20467;-55
2022/08/25 07:31:36;;;;;;;7.47;7.07;;;;;;;27.04;65.13;102112.16;5034145;28;20448;-56
2022/08/25 07:36:49;;;;;;;7.83;6.93;;;;;;;26.67;64.64;102117.84;5034120;28;20431;-51
2022/08/25 07:39:17;;;;;;;8.07;7.40;;;;;;;26.33;64.18;102120.22;5033576;28;20455;-54
2022/08/25 07:41:51;;;;;;;7.80;7.20;;;;;;;26.05;63.67;102121.44;5034049;28;20451;-53
2022/08/25 07:44:20;;;;;;;8.10;7.40;;;;;;;25.55;65.00;102121.13;5034020;28;20493;-53
2022/08/25 07:46:48;;;;;;;8.60;7.13;;;;;;;25.18;66.15;102127.38;5033979;28;20446;-55
2022/08/25 07:49:16;;;;;;;8.33;7.53;;;;;;;25.05;69.02;102110.63;5033529;28;20455;-53
2022/08/25 07:51:50;;;;;;;7.90;7.20;;;;;;;24.56;69.18;102110.66;5033518;28;20535;-54
2022/08/25 07:54:33;;;;;;;9.40;7.67;;;;;;;24.66;69.93;102110.78;5033752;28;20566;-53
2022/08/25 07:57:04;;;;;;;8.10;7.50;;;;;;;24.58;69.83;102111.22;5033927;28;20462;-55
2022/08/25 07:59:31;;;;;;;8.90;8.20;;;;;;;24.73;70.27;102103.19;5033375;28;20471;-55
2022/08/25 08:02:07;;;;;;;8.70;8.00;;;;;;;24.69;70.14;102110.25;5033723;28;20463;-57
2022/08/25 08:04:45;;;;;;;9.30;8.37;;;;;;;24.85;68.92;102105.00;5033693;28;20518;-51
2022/08/25 08:07:12;;;;;;;8.10;7.50;;;;;;;24.84;69.63;102108.78;5033620;28;20436;-51
2022/08/25 08:09:40;;;;;;;8.63;7.90;;;;;;;24.84;70.02;102098.69;5033151;28;20809;-49
2022/08/25 08:12:10;;;;;;;7.90;7.20;;;;;;;24.88;69.51;102101.75;5033113;28;20455;-47
2022/08/25 08:14:38;;;;;;;9.03;8.23;;;;;;;25.30;68.15;102103.44;5033359;28;20435;-49
2022/08/25 08:17:13;;;;;;;8.47;7.70;;;;;;;25.57;68.17;102100.66;5033079;28;20518;-55
2022/08/25 08:19:43;;;;;;;8.57;7.17;;;;;;;25.37;66.99;102096.94;5032962;28;20874;-52
2022/08/25 08:22:14;;;;;;;9.03;8.27;;;;;;;25.17;67.25;102094.91;5033160;28;20458;-53
2022/08/25 08:24:43;;;;;;;8.63;7.93;;;;;;;24.94;68.06;102084.34;5033219;28;20806;-52
2022/08/25 08:27:24;;;;;;;8.27;7.67;;;;;;;24.66;69.18;102094.41;5032951;28;20833;-49
2022/08/25 08:29:52;;;;;;;8.57;7.67;;;;;;;24.65;69.27;102092.75;5032683;28;20469;-51
2022/08/25 08:32:20;;;;;;;8.70;8.10;;;;;;;24.59;70.90;102093.78;5032925;28;20444;-52
2022/08/25 08:34:54;;;;;;;10.23;8.20;;;;;;;24.61;69.99;102091.59;5032896;28;20996;-50
2022/08/25 08:37:22;;;;;;;8.63;7.73;;;;;;;24.90;69.28;102103.13;5032826;28;20531;-52
2022/08/25 08:39:51;;;;;;;8.47;7.77;;;;;;;25.04;68.11;102100.78;5032153;28;20559;-51
2022/08/25 08:42:34;;;;;;;11.23;7.60;;;;;;;25.18;67.04;102102.81;5032306;28;20456;-52
2022/08/25 08:45:17;;;;;;;9.17;8.37;;;;;;;25.38;65.40;102083.03;5032998;28;20428;-54
2022/08/25 08:47:54;;;;;;;8.70;7.83;;;;;;;25.36;65.65;102096.13;5032753;28;20431;-54
2022/08/25 08:50:30;;;;;;;7.77;7.30;;;;;;;25.38;65.06;102093.97;5032210;28;20478;-54
2022/08/25 08:53:06;;;;;;;8.83;8.10;;;;;;;25.50;65.52;102088.34;5032246;28;20451;-50
2022/08/25 08:55:39;;;;;;;14.83;9.30;;;;;;;25.56;64.80;102095.47;5032639;28;20434;-53
2022/08/25 08:58:16;;;;;;;9.20;8.30;;;;;;;25.33;64.83;102101.31;5032502;28;20438;-49
2022/08/25 09:00:47;;;;;;;8.47;7.90;;;;;;;25.36;63.88;102096.13;5032163;28;20957;-49
2022/08/25 09:03:28;;;;;;;8.53;7.90;;;;;;;25.05;64.99;102100.53;5032063;28;20440;-53
2022/08/25 09:06:00;;;;;;;9.27;8.47;;;;;;;25.14;65.87;102098.97;5032558;28;20440;-49
2022/08/25 09:08:30;;;;;;;8.83;8.13;;;;;;;25.45;65.90;102102.72;5032177;28;21056;-46
2022/08/25 09:11:07;;;;;;;8.50;8.00;;;;;;;25.36;64.58;102100.78;5031950;28;20981;-52
2022/08/25 09:13:57;;;;;;;9.17;8.23;;;;;;;25.36;64.41;102096.13;5032063;28;20514;-47
2022/08/25 09:19:39;;;;;;;8.57;7.87;;;;;;;25.04;64.92;102095.31;5031695;28;20914;-47
2022/08/25 09:22:18;;;;;;;10.97;7.63;;;;;;;25.33;65.21;102084.91;5031970;28;20851;-47
2022/08/25 09:25:11;;;;;;;9.77;8.87;;;;;;;25.14;65.33;102079.88;5032222;28;20446;-49
2022/08/25 09:27:46;;;;;;;9.20;8.50;;;;;;;25.24;65.03;102079.94;5032009;28;20431;-48
2022/08/25 09:30:18;;;;;;;7.90;7.30;;;;;;;25.44;64.42;102084.72;5031718;28;20521;-50
2022/08/25 09:32:49;;;;;;;8.73;7.60;;;;;;;25.84;64.82;102082.25;5031529;28;20444;-52
2022/08/25 09:35:23;;;;;;;8.33;7.70;;;;;;;25.42;65.30;102084.13;5031982;28;20446;-52
2022/08/25 09:37:58;;;;;;;9.10;8.23;;;;;;;25.53;65.70;102076.88;5031903;28;20551;-47
2022/08/25 09:40:29;;;;;;;12.37;9.67;;;;;;;25.53;65.99;102074.16;5031149;28;21024;-49
2022/08/25 09:43:01;;;;;;;12.53;8.70;;;;;;;25.46;66.89;102065.31;5031474;28;20985;-48
2022/08/25 09:45:45;;;;;;;8.33;7.60;;;;;;;25.84;67.39;102065.00;5031970;28;21140;-48
2022/08/25 09:48:24;;;;;;;8.70;8.10;;;;;;;25.93;66.14;102071.63;5031800;28;20423;-50
2022/08/25 09:50:57;;;;;;;9.17;7.37;;;;;;;26.03;64.15;102063.47;5031101;28;20488;-50
2022/08/25 09:53:25;;;;;;;9.03;8.43;;;;;;;26.44;64.29;102064.44;5030899;28;20427;-50
2022/08/25 09:55:59;;;;;;;9.33;8.63;;;;;;;26.35;63.94;102055.94;5031774;28;20458;-49
2022/08/25 09:58:27;;;;;;;9.83;8.67;;;;;;;26.42;63.20;102066.63;5031746;28;20428;-51
2022/08/25 10:01:06;;;;;;;9.00;8.33;;;;;;;26.30;62.20;102052.38;5031045;28;20479;-52
2022/08/25 10:03:34;;;;;;;8.93;8.33;;;;;;;26.90;62.41;102054.41;5031627;28;20446;-49
2022/08/25 10:06:06;;;;;;;9.10;8.20;;;;;;;26.94;60.47;102059.03;5031782;28;20530;-49
2022/08/25 10:08:51;;;;;;;8.80;8.10;;;;;;;26.94;60.71;102044.56;5031299;28;20427;-52
2022/08/25 10:11:36;;;;;;;9.17;8.40;;;;;;;26.77;60.97;102041.22;5031521;28;20457;-49
2022/08/25 10:14:14;;;;;;;8.77;8.17;;;;;;;26.64;60.26;102037.09;5031508;28;20439;-50
2022/08/25 10:16:45;;;;;;;8.23;7.73;;;;;;;26.33;62.05;102035.44;5031746;28;20442;-47
2022/08/25 10:19:24;;;;;;;9.40;8.47;;;;;;;26.51;61.99;102026.72;5031167;28;20509;-48
2022/08/25 10:22:04;;;;;;;9.27;8.30;;;;;;;26.52;61.95;102022.88;5031282;28;20536;-52
2022/08/25 10:24:33;;;;;;;9.27;8.60;;;;;;;26.49;62.53;102019.88;5031644;28;20439;-49
2022/08/25 10:27:14;;;;;;;10.90;9.17;;;;;;;26.76;62.63;102015.75;5031380;28;20522;-49
2022/08/25 10:30:07;;;;;;;8.63;8.03;;;;;;;26.56;60.80;102006.72;5031068;28;20458;-48
2022/08/25 10:32:56;;;;;;;8.60;7.97;;;;;;;26.91;59.74;102007.56;5030980;28;21017;-51
2022/08/25 10:35:28;;;;;;;8.90;8.00;;;;;;;26.61;60.72;102018.50;5029230;28;20439;-53
2022/08/25 10:38:09;;;;;;;11.33;8.57;;;;;;;26.64;60.39;102007.00;5031375;28;20432;-49
2022/08/25 10:40:44;;;;;;;7.67;7.20;;;;;;;26.62;61.41;102001.00;5030640;28;20479;-52
2022/08/25 10:43:23;;;;;;;8.67;8.00;;;;;;;26.57;61.00;101997.44;5030757;28;20447;-48
2022/08/25 10:45:58;;;;;;;8.47;7.77;;;;;;;26.43;61.56;102004.53;5031184;28;20431;-46
2022/08/25 10:49:04;;;;;;;9.00;7.27;;;;;;;26.06;62.44;102002.78;5031114;28;20856;-49
2022/08/25 10:51:46;;;;;;;8.10;7.50;;;;;;;26.06;62.37;101996.50;5030825;28;20455;-49
2022/08/25 10:54:30;;;;;;;10.70;8.47;;;;;;;26.45;62.29;101994.97;5031194;28;20435;-50
2022/08/25 10:57:06;;;;;;;7.03;6.50;;;;;;;26.40;61.66;101986.78;5031417;28;20435;-51
2022/08/25 10:59:52;;;;;;;7.50;6.90;;;;;;;26.24;61.81;101994.13;5030549;28;20550;-49
2022/08/25 11:03:06;;;;;;;8.17;7.53;;;;;;;25.65;64.22;101984.63;5030770;28;20468;-52
2022/08/25 11:05:40;;;;;;;9.13;8.37;;;;;;;25.61;64.69;101986.22;5032776;28;20443;-51
2022/08/25 11:08:14;;;;;;;8.63;8.03;;;;;;;25.71;64.50;101980.81;5034808;28;20441;-47
2022/08/25 11:10:47;;;;;;;9.57;8.60;;;;;;;25.75;64.73;101976.44;5034213;28;20464;-48
2022/08/25 11:13:25;;;;;;;8.90;8.30;;;;;;;25.75;65.49;101977.25;5034419;28;20440;-49
2022/08/25 11:15:56;;;;;;;10.43;8.60;;;;;;;25.69;66.02;101972.03;5034673;28;20797;-52
2022/08/25 11:18:50;;;;;;;10.00;8.43;;;;;;;25.75;66.23;101970.97;5034165;28;20783;-53
2022/08/25 11:21:26;;;;;;;10.67;9.10;;;;;;;26.14;65.37;101968.63;5034427;28;20848;-53
2022/08/25 11:24:04;;;;;;;9.10;8.20;;;;;;;25.86;65.93;101981.66;5034165;28;20432;-50
2022/08/25 11:26:35;;;;;;;9.67;8.47;;;;;;;26.03;66.14;101975.16;5034113;28;20431;-47
2022/08/25 11:29:09;;;;;;;10.03;8.50;;;;;;;25.98;65.37;101969.69;5034215;28;20502;-49
2022/08/25 11:31:42;;;;;;;8.00;7.27;;;;;;;26.06;65.92;101980.09;5034404;28;20823;-51
2022/08/25 11:34:13;;;;;;;8.70;7.80;;;;;;;25.94;66.49;101966.69;5034058;28;20446;-53
2022/08/25 11:36:49;;;;;;;10.47;7.30;;;;;;;26.15;66.02;101968.41;5034244;28;20431;-51
2022/08/25 11:39:33;;;;;;;8.33;7.60;;;;;;;25.81;66.79;101965.25;5033462;28;20831;-52
2022/08/25 11:42:12;;;;;;;9.77;7.80;;;;;;;26.04;66.90;101960.41;5033670;28;21005;-50